Time;durP1;ratioP1;P1;durP2;ratioP2;P2;SDS_P1;SDS_P2;PMS_P1;PMS_P2;Temp;Humidity;BMP_temperature;BMP_pressure;BME280_temperature;BME280_humidity;BME280_pressure;Samples;Min_cycle;Max_cycle;Signal;HPM_P1;HPM_P2
2024/01/28 00:02:20;;;;;;;3.63;1.73;;;-2.50;1.00;;;;;;4982834;28;20027;-77
2024/01/28 00:04:46;;;;;;;0.05;0.05;;;-2.60;1.00;;;;;;4987190;28;20034;-79
2024/01/28 00:07:12;;;;;;;0.63;0.63;;;-2.60;1.00;;;;;;4989700;28;20061;-77
2024/01/28 00:09:38;;;;;;;0.45;0.35;;;-2.60;1.00;;;;;;4984349;28;20396;-78
2024/01/28 00:12:05;;;;;;;0.10;0.10;;;-2.60;1.00;;;;;;4984602;28;20033;-78
2024/01/28 00:14:32;;;;;;;1.38;1.27;;;-2.60;1.00;;;;;;4986006;28;20038;-77
2024/01/28 00:16:58;;;;;;;0.30;0.30;;;-2.60;1.00;;;;;;4986486;28;20034;-78
2024/01/28 00:19:24;;;;;;;1.10;1.08;;;-2.30;93.10;;;;;;4985729;28;20030;-77
2024/01/28 00:21:50;;;;;;;1.88;1.63;;;-2.10;99.90;;;;;;4983990;28;20030;-76
2024/01/28 00:24:20;;;;;;;0.43;0.43;;;-2.00;99.90;;;;;;4986332;28;20448;-77
2024/01/28 00:26:47;;;;;;;1.05;0.98;;;-2.00;99.90;;;;;;4986972;28;20380;-78
2024/01/28 00:29:13;;;;;;;1.33;1.23;;;-2.00;99.90;;;;;;5003225;28;20042;-78
2024/01/28 00:31:39;;;;;;;0.98;0.77;;;-2.10;99.90;;;;;;4984730;28;20038;-77
2024/01/28 00:34:06;;;;;;;0.90;0.57;;;-2.10;99.90;;;;;;4981326;28;20046;-79
2024/01/28 00:36:32;;;;;;;1.25;0.73;;;-2.20;99.90;;;;;;4986425;28;20050;-78
2024/01/28 00:38:58;;;;;;;1.27;1.17;;;-2.30;99.90;;;;;;4985014;28;20046;-78
2024/01/28 00:41:28;;;;;;;0.20;0.20;;;-2.30;99.90;;;;;;4983637;28;20038;-78
2024/01/28 00:43:55;;;;;;;4.97;0.80;;;-2.40;99.90;;;;;;4979055;28;20027;-78
2024/01/28 00:46:24;;;;;;;0.40;0.40;;;-2.40;99.90;;;;;;4986486;28;20031;-78
2024/01/28 00:48:50;;;;;;;0.28;0.28;;;-2.40;99.90;;;;;;4985446;28;20030;-78
2024/01/28 00:51:17;;;;;;;4.03;1.55;;;-2.30;99.90;;;;;;4986939;28;20459;-77
2024/01/28 00:53:43;;;;;;;5.55;1.33;;;-2.40;99.90;;;;;;4987093;28;20027;-78
2024/01/28 00:56:09;;;;;;;1.10;0.88;;;-2.40;99.90;;;;;;4985213;28;20030;-78
2024/01/28 00:58:35;;;;;;;0.70;0.63;;;-2.40;99.90;;;;;;4986324;28;20029;-77
2024/01/28 01:01:01;;;;;;;0.10;0.10;;;-2.50;99.90;;;;;;4987875;28;20031;-77
2024/01/28 01:03:27;;;;;;;0.10;0.10;;;-2.50;99.90;;;;;;4988256;28;20052;-78
2024/01/28 01:05:53;;;;;;;0.75;0.75;;;-2.60;99.90;;;;;;4980358;28;20460;-78
2024/01/28 01:08:20;;;;;;;2.22;1.02;;;-2.60;99.90;;;;;;4983758;28;20065;-77
2024/01/28 01:10:46;;;;;;;2.05;1.67;;;-2.70;99.90;;;;;;4986654;28;20381;-77
2024/01/28 01:13:12;;;;;;;0.65;0.65;;;-2.80;89.30;;;;;;4983237;28;20026;-77
2024/01/28 01:15:38;;;;;;;1.02;1.00;;;-2.60;99.90;;;;;;4983884;28;20345;-77
2024/01/28 01:18:05;;;;;;;0.10;0.10;;;-2.60;99.90;;;;;;4983588;28;20464;-79
2024/01/28 01:20:31;;;;;;;0.93;0.93;;;-2.60;99.90;;;;;;5002440;28;20029;-78
2024/01/28 01:22:58;;;;;;;1.85;1.75;;;-2.60;99.90;;;;;;4986462;28;20030;-78
2024/01/28 01:25:24;;;;;;;1.45;1.30;;;-2.70;98.40;;;;;;4984840;28;20483;-78
2024/01/28 01:27:52;;;;;;;0.10;0.10;;;-2.70;93.80;;;;;;4981418;28;20037;-78
2024/01/28 01:30:18;;;;;;;0.75;0.75;;;-2.60;99.90;;;;;;4987207;28;20037;-78
2024/01/28 01:32:44;;;;;;;1.10;1.00;;;-2.60;99.90;;;;;;4987860;28;20037;-79
2024/01/28 01:35:14;;;;;;;2.35;1.98;;;-2.60;99.90;;;;;;4983242;28;20051;-79
2024/01/28 01:37:41;;;;;;;0.20;0.20;;;-2.70;99.90;;;;;;4978826;28;20035;-79
2024/01/28 01:40:07;;;;;;;1.85;1.10;;;-2.70;88.80;;;;;;4983586;28;20533;-78
2024/01/28 01:42:34;;;;;;;0.35;0.35;;;-2.80;67.20;;;;;;4987998;28;20053;-77
2024/01/28 01:45:01;;;;;;;0.57;0.57;;;-2.70;67.50;;;;;;4985007;28;20039;-79
2024/01/28 01:47:27;;;;;;;0.70;0.65;;;-2.70;72.10;;;;;;4984753;28;20030;-79
2024/01/28 01:49:54;;;;;;;1.20;0.50;;;-2.80;53.30;;;;;;4981833;28;20023;-76
2024/01/28 01:52:21;;;;;;;1.10;1.00;;;-2.80;25.30;;;;;;4983932;28;20029;-79
2024/01/28 01:54:50;;;;;;;0.55;0.43;;;-2.80;17.60;;;;;;4985216;28;20035;-78
2024/01/28 01:57:17;;;;;;;0.40;0.38;;;-2.80;20.30;;;;;;4981389;28;20038;-79
2024/01/28 01:59:45;;;;;;;1.38;1.27;;;-2.90;11.60;;;;;;4985246;28;20026;-77
2024/01/28 02:02:12;;;;;;;0.93;0.75;;;-3.00;1.00;;;;;;4985813;28;20322;-77
2024/01/28 02:04:38;;;;;;;3.30;3.05;;;-3.00;1.00;;;;;;4985197;28;20030;-77
2024/01/28 02:07:06;;;;;;;0.40;0.40;;;-3.00;1.00;;;;;;4982327;28;20051;-75
2024/01/28 02:09:34;;;;;;;0.10;0.10;;;-2.90;1.00;;;;;;4980943;28;20364;-76
2024/01/28 02:12:01;;;;;;;0.38;0.38;;;-2.90;1.00;;;;;;4982661;28;20042;-77
2024/01/28 02:14:29;;;;;;;5.25;1.65;;;-3.10;1.00;;;;;;4985837;28;20026;-78
2024/01/28 02:16:55;;;;;;;1.40;1.35;;;-3.10;1.00;;;;;;4984327;28;20380;-77
2024/01/28 02:19:22;;;;;;;2.17;0.75;;;-3.10;1.00;;;;;;4978359;28;20041;-77
2024/01/28 02:21:48;;;;;;;0.10;0.10;;;-3.00;1.00;;;;;;4983707;28;20030;-77
2024/01/28 02:24:14;;;;;;;0.43;0.43;;;-3.10;1.00;;;;;;4984813;28;20057;-78
2024/01/28 02:26:40;;;;;;;0.95;0.65;;;-3.10;1.00;;;;;;4984731;28;20470;-79
2024/01/28 02:29:06;;;;;;;0.30;0.30;;;-3.20;1.00;;;;;;4981356;28;20042;-79
2024/01/28 02:31:33;;;;;;;1.58;0.68;;;-3.20;1.00;;;;;;4980909;28;20449;-79
2024/01/28 02:33:59;;;;;;;1.55;1.45;;;-3.20;1.00;;;;;;4982579;28;20026;-79
2024/01/28 02:36:28;;;;;;;0.10;0.10;;;-3.20;1.00;;;;;;4983175;28;20042;-79
2024/01/28 02:38:54;;;;;;;1.85;1.02;;;-3.30;1.00;;;;;;4984477;28;20046;-78
2024/01/28 02:41:21;;;;;;;0.40;0.40;;;-3.30;1.00;;;;;;4984701;28;20053;-78
2024/01/28 02:43:47;;;;;;;0.13;0.13;;;-3.30;1.00;;;;;;4984687;28;20387;-78
2024/01/28 02:46:14;;;;;;;1.23;1.15;;;-3.20;1.00;;;;;;4985719;28;20270;-79
2024/01/28 02:48:41;;;;;;;0.20;0.20;;;-3.20;1.00;;;;;;4983381;28;20103;-80
2024/01/28 02:51:07;;;;;;;2.28;0.68;;;-3.10;1.00;;;;;;4981980;28;20038;-80
2024/01/28 02:53:33;;;;;;;0.90;0.90;;;-3.10;1.00;;;;;;4982448;28;20034;-79
2024/01/28 02:56:00;;;;;;;0.10;0.10;;;-3.00;1.00;;;;;;4984327;28;20022;-80
2024/01/28 02:58:26;;;;;;;1.65;1.45;;;-3.10;1.00;;;;;;4984306;28;20039;-79
2024/01/28 03:00:52;;;;;;;0.13;0.13;;;-3.10;1.00;;;;;;4985640;28;20039;-79
2024/01/28 03:03:19;;;;;;;1.52;1.42;;;-3.20;1.00;;;;;;4996729;28;20369;-77
2024/01/28 03:05:45;;;;;;;0.20;0.20;;;-3.20;1.00;;;;;;4980335;28;20039;-79
2024/01/28 03:08:11;;;;;;;1.63;1.52;;;-3.20;1.00;;;;;;4982682;28;20053;-77
2024/01/28 03:10:37;;;;;;;0.38;0.38;;;-3.30;1.00;;;;;;4983155;28;20349;-77
2024/01/28 03:13:04;;;;;;;1.65;0.77;;;-3.30;1.00;;;;;;4982806;28;20031;-78
2024/01/28 03:15:30;;;;;;;1.13;1.00;;;-3.30;1.00;;;;;;4980521;28;20034;-78
2024/01/28 03:17:56;;;;;;;1.15;1.05;;;-3.30;1.00;;;;;;4982953;28;20034;-78
2024/01/28 03:20:24;;;;;;;1.60;1.02;;;-3.30;1.00;;;;;;4984698;28;20026;-79
2024/01/28 03:22:51;;;;;;;2.08;1.98;;;-3.30;1.00;;;;;;4984007;28;20031;-77
2024/01/28 03:25:17;;;;;;;1.17;1.17;;;-3.30;1.00;;;;;;4982414;28;20041;-77
2024/01/28 03:27:43;;;;;;;0.55;0.55;;;-3.30;1.00;;;;;;4983598;28;20030;-78
2024/01/28 03:30:09;;;;;;;5.47;1.38;;;-3.30;1.00;;;;;;4989597;28;20026;-79
2024/01/28 03:32:36;;;;;;;0.00;0.00;;;-3.30;1.00;;;;;;4986421;28;20403;-78
2024/01/28 03:35:03;;;;;;;0.05;0.05;;;-3.40;1.00;;;;;;4986662;28;20047;-77
2024/01/28 03:37:29;;;;;;;2.05;1.55;;;-3.40;1.00;;;;;;4986092;28;20046;-78
2024/01/28 03:39:55;;;;;;;4.90;2.28;;;-3.50;1.00;;;;;;4988957;28;20030;-76
2024/01/28 03:42:23;;;;;;;0.32;0.32;;;-3.50;1.00;;;;;;4995900;28;20030;-77
2024/01/28 03:44:50;;;;;;;9.85;1.88;;;-3.50;1.00;;;;;;4989297;28;20042;-78
2024/01/28 03:47:16;;;;;;;0.30;0.30;;;-3.60;1.00;;;;;;4981923;28;20046;-78
2024/01/28 03:49:42;;;;;;;0.75;0.75;;;-3.60;1.00;;;;;;4989060;28;20035;-78
2024/01/28 03:52:08;;;;;;;0.43;0.43;;;-3.60;1.00;;;;;;4988093;28;20039;-79
2024/01/28 03:54:34;;;;;;;1.58;1.48;;;-3.60;1.00;;;;;;4990938;28;20030;-78
2024/01/28 03:57:01;;;;;;;0.57;0.57;;;-3.60;1.00;;;;;;4981676;28;20026;-77
2024/01/28 03:59:27;;;;;;;0.25;0.25;;;-3.60;1.00;;;;;;4987115;28;20031;-78
2024/01/28 04:01:53;;;;;;;1.23;1.13;;;-3.70;1.00;;;;;;4989449;28;20031;-77
2024/01/28 04:04:20;;;;;;;0.30;0.30;;;-3.70;1.00;;;;;;4987014;28;20099;-77
2024/01/28 04:06:46;;;;;;;0.80;0.70;;;-3.70;1.00;;;;;;4985230;28;20031;-78
2024/01/28 04:09:13;;;;;;;0.90;0.80;;;-3.70;1.00;;;;;;4980054;28;20027;-77
2024/01/28 04:11:40;;;;;;;1.85;1.55;;;-3.70;1.00;;;;;;4988713;28;20454;-78
2024/01/28 04:14:06;;;;;;;0.82;0.82;;;-3.70;1.00;;;;;;4987740;28;20037;-78
2024/01/28 04:16:33;;;;;;;2.00;1.30;;;-3.70;1.00;;;;;;4987769;28;20376;-78
2024/01/28 04:18:59;;;;;;;0.35;0.35;;;-3.80;1.00;;;;;;4980968;28;20383;-77
2024/01/28 04:21:26;;;;;;;0.15;0.15;;;-3.80;1.00;;;;;;4984417;28;20058;-78
2024/01/28 04:23:52;;;;;;;0.60;0.60;;;-3.80;1.00;;;;;;4987889;28;20456;-78
2024/01/28 04:26:19;;;;;;;1.02;0.95;;;-3.80;1.00;;;;;;4987762;28;20027;-78
2024/01/28 04:28:46;;;;;;;1.45;1.35;;;-3.80;1.00;;;;;;4984729;28;20034;-78
2024/01/28 04:31:16;;;;;;;0.55;0.55;;;-3.80;1.00;;;;;;4980186;28;20358;-77
2024/01/28 04:33:42;;;;;;;1.15;1.13;;;-3.80;1.00;;;;;;4989265;28;20022;-78
2024/01/28 04:36:08;;;;;;;7.90;1.52;;;-3.80;1.00;;;;;;4987369;28;20400;-78
2024/01/28 04:38:34;;;;;;;0.65;0.65;;;-3.80;1.00;;;;;;4983851;28;20042;-78
2024/01/28 04:41:01;;;;;;;0.17;0.17;;;-3.80;1.00;;;;;;4980938;28;20026;-78
2024/01/28 04:43:27;;;;;;;1.25;1.20;;;-3.80;1.00;;;;;;4987123;28;20034;-78
2024/01/28 04:45:53;;;;;;;1.10;1.08;;;-3.90;99.90;;;;;;4988937;28;20027;-77
2024/01/28 04:48:20;;;;;;;1.23;1.13;;;-3.90;99.90;;;;;;4983260;28;20051;-78
2024/01/28 04:50:47;;;;;;;1.80;1.70;;;-3.90;99.90;;;;;;4985414;28;20034;-78
2024/01/28 04:53:13;;;;;;;0.73;0.73;;;-3.90;99.90;;;;;;4985570;28;20027;-78
2024/01/28 04:55:39;;;;;;;0.03;0.03;;;-3.90;99.90;;;;;;4987839;28;20030;-78
2024/01/28 04:58:06;;;;;;;0.52;0.52;;;-3.90;99.90;;;;;;4986815;28;20067;-77
2024/01/28 05:00:32;;;;;;;1.52;1.42;;;-3.90;99.90;;;;;;4982584;28;20448;-77
2024/01/28 05:02:58;;;;;;;1.27;1.02;;;-3.90;99.90;;;;;;4980935;28;20460;-77
2024/01/28 05:05:24;;;;;;;0.43;0.43;;;-4.00;99.90;;;;;;4991529;28;20031;-78
2024/01/28 05:07:50;;;;;;;0.73;0.47;;;-4.00;99.90;;;;;;4988316;28;20066;-78
2024/01/28 05:10:16;;;;;;;2.08;1.83;;;-4.00;99.90;;;;;;4989879;28;20451;-77
2024/01/28 05:12:45;;;;;;;0.10;0.10;;;-4.00;99.90;;;;;;4978532;28;20042;-77
2024/01/28 05:15:16;;;;;;;3.20;2.17;;;-4.10;99.90;;;;;;4989446;28;20034;-77
2024/01/28 05:17:44;;;;;;;0.30;0.30;;;-4.10;99.90;;;;;;4985699;28;20035;-77
2024/01/28 05:20:11;;;;;;;2.17;1.65;;;-4.10;99.90;;;;;;4986950;28;20034;-76
2024/01/28 05:22:38;;;;;;;2.20;0.73;;;-4.10;99.90;;;;;;4979306;28;20038;-77
2024/01/28 05:25:05;;;;;;;0.00;0.00;;;-4.00;99.90;;;;;;4984641;28;20034;-77
2024/01/28 05:27:31;;;;;;;2.83;2.63;;;-4.00;99.90;;;;;;4985109;28;20387;-78
2024/01/28 05:29:58;;;;;;;6.88;1.27;;;-4.00;99.90;;;;;;4988624;28;20066;-77
2024/01/28 05:32:28;;;;;;;0.45;0.45;;;-4.00;99.90;;;;;;4983378;28;20478;-76
2024/01/28 05:35:01;;;;;;;1.77;1.65;;;-3.90;99.90;;;;;;4981367;28;20098;-76
2024/01/28 05:37:27;;;;;;;3.33;2.55;;;-3.80;99.90;;;;;;4985903;28;20046;-77
2024/01/28 05:39:53;;;;;;;0.10;0.10;;;-3.90;99.90;;;;;;4986631;28;20100;-78
2024/01/28 05:42:20;;;;;;;0.63;0.55;;;-3.90;99.90;;;;;;4983494;28;20284;-78
2024/01/28 05:44:46;;;;;;;6.60;1.17;;;-4.00;99.90;;;;;;4978480;28;20026;-78
2024/01/28 05:47:12;;;;;;;0.43;0.43;;;-4.10;99.90;;;;;;4983333;28;20494;-78
2024/01/28 05:49:38;;;;;;;2.15;2.00;;;-4.10;99.90;;;;;;4985936;28;20030;-77
2024/01/28 05:52:06;;;;;;;1.10;1.10;;;-4.10;99.90;;;;;;4986716;28;20491;-77
2024/01/28 05:54:32;;;;;;;0.73;0.68;;;-4.10;99.90;;;;;;4985602;28;20026;-78
2024/01/28 05:56:59;;;;;;;0.60;0.60;;;-4.10;99.90;;;;;;4981163;28;20079;-78
2024/01/28 05:59:26;;;;;;;0.75;0.75;;;-4.10;99.90;;;;;;4986580;28;20042;-77
2024/01/28 06:01:52;;;;;;;1.73;1.17;;;-4.20;99.90;;;;;;4986362;28;20368;-78
2024/01/28 06:04:18;;;;;;;0.40;0.40;;;-4.20;99.90;;;;;;4981575;28;20468;-78
2024/01/28 06:06:45;;;;;;;0.10;0.10;;;-4.20;99.90;;;;;;4978247;28;20039;-77
2024/01/28 06:09:11;;;;;;;8.40;2.80;;;-4.20;99.90;;;;;;4984059;28;20037;-77
2024/01/28 06:11:37;;;;;;;0.43;0.43;;;-4.20;99.90;;;;;;4988458;28;20034;-77
2024/01/28 06:14:03;;;;;;;2.40;0.73;;;-4.20;99.90;;;;;;4988640;28;20045;-76
2024/01/28 06:16:29;;;;;;;1.50;1.40;;;-4.20;99.90;;;;;;4983420;28;20095;-79
2024/01/28 06:18:56;;;;;;;1.00;1.00;;;-4.30;99.90;;;;;;4984043;28;20038;-78
2024/01/28 06:21:22;;;;;;;0.63;0.63;;;-4.30;99.90;;;;;;4985685;28;20134;-76
2024/01/28 06:23:48;;;;;;;0.00;0.00;;;-4.30;99.90;;;;;;4985769;28;20043;-77
2024/01/28 06:26:17;;;;;;;5.25;2.97;;;-4.30;99.90;;;;;;4982650;28;20031;-77
2024/01/28 06:28:47;;;;;;;1.38;1.27;;;-4.30;99.90;;;;;;4983317;28;20380;-77
2024/01/28 06:31:14;;;;;;;0.82;0.82;;;-4.30;99.90;;;;;;4983625;28;20038;-77
2024/01/28 06:33:41;;;;;;;2.97;1.05;;;-4.30;99.90;;;;;;4987287;28;20034;-76
2024/01/28 06:36:07;;;;;;;0.32;0.32;;;-4.30;99.90;;;;;;4980400;28;20051;-73
2024/01/28 06:38:33;;;;;;;2.78;1.85;;;-4.30;99.90;;;;;;4978904;28;20159;-77
2024/01/28 06:40:59;;;;;;;1.30;1.20;;;-4.30;99.90;;;;;;4984254;28;20037;-76
2024/01/28 06:43:26;;;;;;;3.83;0.47;;;-4.40;99.90;;;;;;4985263;28;20034;-77
2024/01/28 06:45:52;;;;;;;1.80;1.67;;;-4.40;99.90;;;;;;4984912;28;20030;-77
2024/01/28 06:48:19;;;;;;;4.40;3.25;;;-4.40;99.90;;;;;;4980712;28;20054;-77
2024/01/28 06:50:49;;;;;;;0.75;0.63;;;-4.40;99.90;;;;;;4983737;28;20046;-76
2024/01/28 06:53:15;;;;;;;1.67;1.25;;;-4.40;99.90;;;;;;4993128;28;20045;-77
2024/01/28 06:55:41;;;;;;;1.00;1.00;;;-4.40;99.90;;;;;;4986019;28;20495;-78
2024/01/28 06:58:07;;;;;;;2.05;1.10;;;-4.40;99.90;;;;;;4979996;28;20038;-76
2024/01/28 07:00:34;;;;;;;1.30;1.17;;;-4.40;99.90;;;;;;4978356;28;20049;-77
2024/01/28 07:03:00;;;;;;;0.32;0.32;;;-4.30;99.90;;;;;;4984431;28;20034;-77
2024/01/28 07:05:26;;;;;;;1.75;1.60;;;-4.30;99.90;;;;;;4986352;28;20038;-78
2024/01/28 07:07:52;;;;;;;3.10;2.10;;;-4.30;99.90;;;;;;4981912;28;20039;-77
2024/01/28 07:10:18;;;;;;;1.42;1.33;;;-4.30;99.90;;;;;;4981680;28;20384;-76
2024/01/28 07:12:44;;;;;;;1.65;1.50;;;-4.20;99.90;;;;;;4982197;28;20039;-77
2024/01/28 07:15:10;;;;;;;2.05;1.38;;;-4.20;99.90;;;;;;4985637;28;20030;-77
2024/01/28 07:17:37;;;;;;;1.35;0.32;;;-4.30;99.90;;;;;;4981617;28;20031;-77
2024/01/28 07:20:03;;;;;;;0.65;0.65;;;-4.30;99.90;;;;;;4980273;28;20050;-77
2024/01/28 07:22:29;;;;;;;3.72;2.28;;;-4.30;99.90;;;;;;4982847;28;20030;-77
2024/01/28 07:24:56;;;;;;;1.23;1.13;;;-4.30;99.90;;;;;;4984587;28;20027;-78
2024/01/28 07:27:22;;;;;;;3.70;2.05;;;-4.30;99.90;;;;;;4983782;28;20034;-76
2024/01/28 07:29:48;;;;;;;1.42;1.42;;;-4.30;99.90;;;;;;4982474;28;20034;-76
2024/01/28 07:32:14;;;;;;;20.00;2.25;;;-4.30;99.90;;;;;;4979843;28;20042;-78
2024/01/28 07:34:41;;;;;;;0.40;0.40;;;-4.20;99.90;;;;;;4983957;28;20460;-76
2024/01/28 07:37:07;;;;;;;0.40;0.40;;;-4.20;99.90;;;;;;4983597;28;20058;-75
2024/01/28 07:39:33;;;;;;;0.05;0.05;;;-4.20;99.90;;;;;;4984356;28;20042;-76
2024/01/28 07:41:59;;;;;;;1.55;1.33;;;-4.20;99.90;;;;;;4981420;28;20042;-76
2024/01/28 07:44:26;;;;;;;1.65;1.42;;;-4.10;99.90;;;;;;4983360;28;20287;-76
2024/01/28 07:46:53;;;;;;;1.67;1.08;;;-4.10;99.90;;;;;;4982366;28;20037;-76
2024/01/28 07:49:20;;;;;;;4.45;1.25;;;-4.10;99.90;;;;;;4985389;28;20374;-76
2024/01/28 07:51:46;;;;;;;0.10;0.10;;;-3.90;99.90;;;;;;4980755;28;20033;-76
2024/01/28 07:54:12;;;;;;;0.57;0.57;;;-3.90;99.90;;;;;;4980268;28;20152;-76
2024/01/28 07:56:38;;;;;;;1.02;1.00;;;-3.90;99.90;;;;;;4982038;28;20471;-76
2024/01/28 07:59:06;;;;;;;0.03;0.03;;;-3.90;99.90;;;;;;4984314;28;20038;-76
2024/01/28 08:01:32;;;;;;;0.40;0.40;;;-3.80;99.90;;;;;;4982217;28;20042;-76
2024/01/28 08:03:58;;;;;;;0.17;0.17;;;-3.80;99.90;;;;;;4979343;28;20030;-76
2024/01/28 08:06:26;;;;;;;3.60;2.25;;;-3.70;99.90;;;;;;4979410;28;20034;-76
2024/01/28 08:08:54;;;;;;;0.98;0.98;;;-3.60;99.90;;;;;;4987871;28;20033;-77
2024/01/28 08:11:20;;;;;;;0.65;0.65;;;-3.30;99.90;;;;;;4986227;28;20371;-76
2024/01/28 08:13:48;;;;;;;0.77;0.77;;;-3.20;99.90;;;;;;4989962;28;20035;-77
2024/01/28 08:16:14;;;;;;;0.30;0.30;;;-3.10;99.90;;;;;;4986937;28;20022;-76
2024/01/28 08:18:40;;;;;;;2.13;1.85;;;-3.00;99.90;;;;;;4991322;28;20030;-77
2024/01/28 08:21:07;;;;;;;0.85;0.73;;;-2.80;99.90;;;;;;4992307;28;20042;-77
2024/01/28 08:23:35;;;;;;;2.40;1.10;;;-2.70;99.90;;;;;;4986043;28;20101;-77
2024/01/28 08:26:02;;;;;;;1.70;1.55;;;-2.60;99.90;;;;;;4988731;28;20027;-76
2024/01/28 08:28:28;;;;;;;5.38;1.42;;;-2.50;99.90;;;;;;4991545;28;20197;-77
2024/01/28 08:30:54;;;;;;;2.30;1.67;;;-2.30;99.90;;;;;;4993032;28;20098;-76
2024/01/28 08:33:20;;;;;;;7.40;1.75;;;-2.20;99.90;;;;;;4991233;28;20459;-76
2024/01/28 08:35:47;;;;;;;1.02;1.00;;;-2.10;99.90;;;;;;4989300;28;20038;-76
2024/01/28 08:38:13;;;;;;;2.53;2.33;;;-1.90;99.90;;;;;;4983272;28;20058;-76
2024/01/28 08:40:39;;;;;;;1.73;0.77;;;-1.70;99.90;;;;;;4981034;28;20041;-76
2024/01/28 08:43:07;;;;;;;1.70;1.60;;;-1.50;99.90;;;;;;4986607;28;20042;-76
2024/01/28 08:45:36;;;;;;;12.82;3.60;;;-1.30;99.90;;;;;;4982527;28;20031;-77
2024/01/28 08:48:03;;;;;;;1.17;1.08;;;-1.20;1.00;;;;;;4975339;28;20649;-76
2024/01/28 08:50:29;;;;;;;1.08;0.95;;;-1.00;1.00;;;;;;4986993;28;20041;-77
2024/01/28 08:52:56;;;;;;;1.27;1.17;;;-0.80;1.00;;;;;;4989913;28;20041;-77
2024/01/28 08:55:22;;;;;;;2.72;2.22;;;-0.60;1.00;;;;;;4986061;28;20026;-77
2024/01/28 08:57:48;;;;;;;0.93;0.88;;;-0.50;1.00;;;;;;4985872;28;20499;-76
2024/01/28 09:00:15;;;;;;;1.20;1.10;;;-0.50;1.00;;;;;;4981452;28;20046;-76
2024/01/28 09:02:41;;;;;;;0.57;0.57;;;-0.30;1.00;;;;;;4987753;28;20039;-76
2024/01/28 09:05:08;;;;;;;0.85;0.85;;;-0.30;1.00;;;;;;4985720;28;20031;-77
2024/01/28 09:07:34;;;;;;;1.15;1.13;;;-0.20;1.00;;;;;;4979985;28;20031;-77
2024/01/28 09:10:00;;;;;;;1.95;1.52;;;-0.10;99.90;;;;;;4979801;28;20041;-77
2024/01/28 09:12:26;;;;;;;0.75;0.75;;;0.00;99.90;;;;;;4987435;28;20042;-77
2024/01/28 09:14:53;;;;;;;5.85;1.42;;;0.00;99.90;;;;;;4991335;28;20023;-77
2024/01/28 09:17:19;;;;;;;4.82;1.50;;;0.10;99.90;;;;;;4999639;28;20033;-73
2024/01/28 09:19:45;;;;;;;25.73;4.00;;;0.20;99.90;;;;;;4982091;28;20034;-76
2024/01/28 09:22:11;;;;;;;0.68;0.68;;;0.30;99.90;;;;;;4986140;28;20027;-75
2024/01/28 09:24:38;;;;;;;1.65;1.55;;;0.30;99.90;;;;;;4986564;28;20061;-76
2024/01/28 09:27:04;;;;;;;1.42;1.33;;;0.50;99.90;;;;;;4988040;28;20380;-76
2024/01/28 09:29:31;;;;;;;0.35;0.35;;;0.60;99.90;;;;;;4979169;28;20070;-76
2024/01/28 09:31:59;;;;;;;2.03;1.13;;;0.60;99.90;;;;;;4980691;28;20043;-75
2024/01/28 09:34:25;;;;;;;5.68;3.30;;;0.70;91.40;;;;;;4985322;28;20026;-76
2024/01/28 09:36:52;;;;;;;0.80;0.80;;;0.80;28.00;;;;;;4986119;28;20046;-76
2024/01/28 09:39:18;;;;;;;0.75;0.50;;;0.90;1.00;;;;;;4982228;28;20042;-75
2024/01/28 09:41:59;;;;;;;1.35;1.25;;;0.90;1.00;;;;;;4978499;28;20033;-75
2024/01/28 09:44:25;;;;;;;1.27;1.17;;;1.00;1.00;;;;;;4987062;28;20457;-75
2024/01/28 09:46:52;;;;;;;1.05;0.82;;;1.00;1.00;;;;;;4985802;28;20027;-76
2024/01/28 09:49:21;;;;;;;1.70;1.60;;;1.10;1.00;;;;;;4985351;28;20034;-75
2024/01/28 09:51:47;;;;;;;0.65;0.65;;;1.20;99.90;;;;;;4979866;28;20045;-75
2024/01/28 09:54:13;;;;;;;1.08;1.05;;;1.30;99.90;;;;;;4986066;28;20042;-76
2024/01/28 09:56:41;;;;;;;1.23;1.13;;;1.50;99.90;;;;;;4984206;28;20475;-76
2024/01/28 09:59:09;;;;;;;1.05;0.95;;;1.50;99.90;;;;;;4988747;28;20042;-75
2024/01/28 10:01:35;;;;;;;2.40;2.20;;;1.60;99.90;;;;;;4981786;28;20031;-75
2024/01/28 10:04:02;;;;;;;1.65;0.60;;;1.70;99.90;;;;;;4983899;28;20034;-76
2024/01/28 10:06:28;;;;;;;1.33;0.93;;;1.80;99.90;;;;;;4985261;28;20118;-75
2024/01/28 10:08:54;;;;;;;1.67;1.55;;;1.90;99.90;;;;;;4985864;28;20041;-76
2024/01/28 10:11:21;;;;;;;1.13;1.10;;;2.10;99.90;;;;;;4982224;28;20363;-75
2024/01/28 10:13:47;;;;;;;1.58;1.48;;;2.20;99.90;;;;;;4997050;28;20030;-76
2024/01/28 10:16:13;;;;;;;9.43;2.50;;;2.30;99.90;;;;;;4983807;28;20041;-75
2024/01/28 10:18:40;;;;;;;2.25;1.73;;;2.40;99.90;;;;;;4984507;28;20041;-76
2024/01/28 10:21:07;;;;;;;1.33;1.30;;;2.50;99.90;;;;;;4983606;28;20041;-74
2024/01/28 10:23:36;;;;;;;2.45;1.52;;;2.60;99.90;;;;;;4979723;28;20034;-75
2024/01/28 10:26:04;;;;;;;5.90;2.60;;;2.70;99.90;;;;;;4984017;28;20442;-74
2024/01/28 10:28:31;;;;;;;3.85;2.10;;;2.60;99.90;;;;;;4983359;28;20034;-73
2024/01/28 10:30:57;;;;;;;1.65;1.55;;;2.80;99.90;;;;;;4985123;28;20045;-73
2024/01/28 10:33:24;;;;;;;1.95;0.93;;;2.90;99.90;;;;;;4979076;28;20018;-72
2024/01/28 10:35:51;;;;;;;1.83;1.70;;;2.90;97.90;;;;;;4982772;28;20459;-73
2024/01/28 10:38:24;;;;;;;6.30;1.48;;;3.00;99.90;;;;;;4982582;28;20031;-72
2024/01/28 10:40:51;;;;;;;0.80;0.80;;;3.20;92.30;;;;;;4985993;28;20026;-73
2024/01/28 10:43:24;;;;;;;2.38;1.45;;;3.20;35.30;;;;;;4981885;28;20129;-74
2024/01/28 10:45:55;;;;;;;1.98;1.25;;;3.20;13.50;;;;;;4978429;28;20468;-75
2024/01/28 10:48:23;;;;;;;1.38;1.17;;;3.30;1.00;;;;;;4984532;28;20041;-74
2024/01/28 10:50:52;;;;;;;8.50;2.05;;;3.40;13.90;;;;;;4985906;28;20034;-75
2024/01/28 10:53:19;;;;;;;1.33;1.33;;;3.50;18.40;;;;;;4982404;28;20356;-76
2024/01/28 10:55:46;;;;;;;2.05;1.13;;;3.40;1.00;;;;;;4972725;28;20236;-75
2024/01/28 10:58:12;;;;;;;1.27;1.10;;;3.50;19.80;;;;;;4982240;28;20031;-75
2024/01/28 11:00:39;;;;;;;2.25;1.25;;;3.60;46.30;;;;;;4981332;28;20468;-74
2024/01/28 11:03:07;;;;;;;2.47;1.33;;;3.80;27.50;;;;;;4985996;28;20467;-74
2024/01/28 11:05:37;;;;;;;1.80;1.67;;;3.70;1.00;;;;;;4978151;28;20026;-74
2024/01/28 11:08:04;;;;;;;0.90;0.90;;;3.80;1.00;;;;;;4973649;28;20026;-74
2024/01/28 11:10:31;;;;;;;1.48;1.38;;;3.90;1.00;;;;;;4986921;28;20034;-74
2024/01/28 11:12:57;;;;;;;1.60;0.73;;;4.10;1.00;;;;;;4988229;28;20091;-74
2024/01/28 11:15:23;;;;;;;1.15;1.15;;;4.10;1.00;;;;;;4983877;28;20449;-74
2024/01/28 11:17:50;;;;;;;0.32;0.32;;;4.30;1.00;;;;;;4980421;28;20049;-75
2024/01/28 11:20:23;;;;;;;0.35;0.35;;;4.40;1.00;;;;;;4982559;28;20053;-74
2024/01/28 11:22:56;;;;;;;0.55;0.55;;;4.40;1.00;;;;;;4984369;28;20027;-75
2024/01/28 11:25:24;;;;;;;1.08;0.30;;;4.50;1.00;;;;;;4985008;28;20046;-75
2024/01/28 11:27:52;;;;;;;1.33;1.08;;;4.70;99.90;;;;;;4994989;28;20030;-75
2024/01/28 11:30:22;;;;;;;1.88;1.02;;;4.70;99.90;;;;;;4979591;28;20034;-74
2024/01/28 11:32:50;;;;;;;0.65;0.50;;;4.80;99.90;;;;;;4988457;28;20049;-74
2024/01/28 11:35:16;;;;;;;2.13;0.80;;;4.80;99.90;;;;;;4987196;28;20158;-74
2024/01/28 11:37:52;;;;;;;2.30;2.10;;;4.90;99.90;;;;;;4978167;28;20047;-74
2024/01/28 11:40:28;;;;;;;1.55;1.00;;;5.00;99.90;;;;;;4978802;28;20042;-74
2024/01/28 11:42:54;;;;;;;1.35;1.08;;;4.90;99.90;;;;;;4983953;28;20035;-74
2024/01/28 11:45:26;;;;;;;2.35;1.38;;;5.10;99.90;;;;;;4983768;28;20085;-75
2024/01/28 11:47:53;;;;;;;1.45;1.20;;;5.00;99.90;;;;;;4983065;28;20027;-76
2024/01/28 11:50:19;;;;;;;0.82;0.80;;;5.00;99.90;;;;;;4984068;28;20480;-75
2024/01/28 11:52:45;;;;;;;2.60;0.85;;;5.00;99.90;;;;;;5003978;28;20049;-76
2024/01/28 11:55:16;;;;;;;0.50;0.50;;;5.00;99.90;;;;;;4988067;28;20030;-75
2024/01/28 11:57:46;;;;;;;2.05;1.45;;;5.10;99.90;;;;;;4987025;28;20476;-75
2024/01/28 12:00:13;;;;;;;1.88;0.93;;;5.20;99.90;;;;;;4984833;28;20387;-76
2024/01/28 12:02:41;;;;;;;3.03;2.28;;;5.30;99.90;;;;;;4982646;28;20038;-76
2024/01/28 12:05:08;;;;;;;0.82;0.82;;;5.40;99.90;;;;;;4988759;28;20034;-76
2024/01/28 12:07:37;;;;;;;1.52;1.42;;;5.50;99.90;;;;;;4985217;28;20321;-76
2024/01/28 12:10:09;;;;;;;0.95;0.73;;;5.60;99.90;;;;;;4987781;28;20046;-76
2024/01/28 12:12:36;;;;;;;4.65;1.35;;;5.60;94.80;;;;;;4989447;28;20034;-77
2024/01/28 12:15:04;;;;;;;0.28;0.28;;;5.70;47.20;;;;;;4989491;28;20022;-76
2024/01/28 12:17:36;;;;;;;1.17;1.08;;;5.70;55.20;;;;;;4987025;28;20023;-76
2024/01/28 12:20:03;;;;;;;1.55;1.10;;;5.90;55.00;;;;;;4988347;28;20375;-76
2024/01/28 12:22:39;;;;;;;0.75;0.75;;;5.90;1.00;;;;;;4981840;28;20022;-75
2024/01/28 12:25:10;;;;;;;0.20;0.20;;;6.00;34.30;;;;;;4986502;28;20034;-75
2024/01/28 12:27:38;;;;;;;0.55;0.55;;;6.20;1.00;;;;;;4988114;28;20054;-75
2024/01/28 12:30:09;;;;;;;1.60;0.95;;;6.10;1.00;;;;;;4988224;28;20030;-75
2024/01/28 12:32:39;;;;;;;0.35;0.35;;;6.10;1.00;;;;;;4984455;28;20498;-75
2024/01/28 12:35:07;;;;;;;0.20;0.20;;;6.10;1.00;;;;;;4981487;28;20046;-75
2024/01/28 12:37:35;;;;;;;0.30;0.30;;;6.30;1.00;;;;;;4980564;28;20030;-75
2024/01/28 12:40:01;;;;;;;1.83;1.27;;;6.30;1.00;;;;;;4984204;28;20034;-75
2024/01/28 12:42:27;;;;;;;0.38;0.38;;;6.40;1.00;;;;;;4982264;28;20069;-75
2024/01/28 12:44:53;;;;;;;0.75;0.75;;;6.30;1.00;;;;;;4985531;28;20034;-75
2024/01/28 12:47:20;;;;;;;2.55;1.27;;;6.40;1.00;;;;;;4987733;28;20039;-75
2024/01/28 12:49:46;;;;;;;0.65;0.65;;;6.50;1.00;;;;;;4987356;28;20038;-76
2024/01/28 12:52:12;;;;;;;0.20;0.20;;;6.60;1.00;;;;;;4985714;28;20030;-76